createdAt,value
2019-03-23T00:01:03.643Z,38.70
2019-03-23T00:03:32.218Z,38.05
2019-03-23T00:06:00.775Z,44.27
2019-03-23T00:08:29.348Z,35.83
2019-03-23T00:10:57.905Z,37.73
2019-03-23T00:13:26.481Z,38.60
2019-03-23T00:15:55.041Z,39.18
2019-03-23T00:18:23.613Z,32.67
2019-03-23T00:20:52.178Z,36.90
2019-03-23T00:23:20.752Z,33.83
2019-03-23T00:25:49.321Z,38.75
2019-03-23T00:28:17.898Z,38.78
2019-03-23T00:30:46.469Z,35.73
2019-03-23T00:33:15.048Z,34.43
2019-03-23T00:35:43.610Z,42.35
2019-03-23T00:38:12.185Z,42.80
2019-03-23T00:40:40.740Z,39.78
2019-03-23T00:43:09.330Z,37.13
2019-03-23T00:45:37.882Z,37.28
2019-03-23T00:48:06.467Z,41.65
2019-03-23T00:50:35.021Z,37.38
2019-03-23T00:53:03.605Z,40.23
2019-03-23T00:55:32.165Z,32.13
2019-03-23T00:58:00.721Z,35.20
2019-03-23T01:00:29.308Z,36.40
2019-03-23T01:02:57.861Z,37.60
2019-03-23T01:05:26.440Z,40.92
2019-03-23T01:07:54.996Z,35.10
2019-03-23T01:10:23.580Z,35.13
2019-03-23T01:12:52.142Z,33.02
2019-03-23T01:15:20.721Z,36.42
2019-03-23T01:17:49.278Z,34.85
2019-03-23T01:20:17.862Z,35.00
2019-03-23T01:22:46.426Z,36.10
2019-03-23T01:25:14.996Z,46.28
2019-03-23T01:27:43.553Z,34.13
2019-03-23T01:30:14.549Z,39.27
2019-03-23T01:32:43.101Z,32.40
2019-03-23T01:35:12.231Z,40.43
2019-03-23T01:37:40.782Z,36.80
2019-03-23T01:40:09.896Z,32.33
2019-03-23T01:42:38.462Z,33.18
2019-03-23T01:45:11.981Z,39.15
2019-03-23T01:47:40.546Z,31.20
2019-03-23T01:50:11.166Z,36.45
2019-03-23T01:52:39.795Z,34.05
2019-03-23T01:55:08.841Z,28.98
2019-03-23T01:57:37.402Z,28.20
2019-03-23T02:00:11.066Z,29.07
2019-03-23T02:02:39.621Z,31.87
2019-03-23T02:05:08.746Z,28.20
2019-03-23T02:07:37.310Z,32.50
2019-03-23T02:10:07.121Z,31.00
2019-03-23T02:12:35.755Z,28.35
2019-03-23T02:15:07.046Z,30.17
2019-03-23T02:17:35.606Z,31.35
2019-03-23T02:20:07.293Z,30.35
2019-03-23T02:22:36.033Z,30.02
2019-03-23T02:25:06.453Z,26.90
2019-03-23T02:27:35.013Z,29.98
2019-03-23T02:30:03.739Z,28.75
2019-03-23T02:32:32.294Z,31.77
2019-03-23T02:35:00.874Z,29.07
2019-03-23T02:37:29.433Z,34.25
2019-03-23T02:39:58.014Z,32.80
2019-03-23T02:42:26.566Z,29.32
2019-03-23T02:44:55.152Z,30.37
2019-03-23T02:47:23.706Z,28.80
2019-03-23T02:49:52.290Z,30.20
2019-03-23T02:52:20.851Z,31.00
2019-03-23T02:54:49.430Z,32.80
2019-03-23T02:57:17.983Z,30.90
2019-03-23T02:59:46.578Z,25.37
2019-03-23T03:02:15.140Z,28.62
2019-03-23T03:04:43.690Z,30.12
2019-03-23T03:07:12.278Z,31.30
2019-03-23T03:09:40.841Z,26.90
2019-03-23T03:12:09.409Z,22.15
2019-03-23T03:14:37.978Z,29.82
2019-03-23T03:17:06.553Z,30.60
2019-03-23T03:19:35.118Z,24.72
2019-03-23T03:22:03.970Z,26.75
2019-03-23T03:24:32.534Z,33.13
2019-03-23T03:27:01.106Z,29.57
2019-03-23T03:29:29.670Z,28.23
2019-03-23T03:31:58.256Z,29.07
2019-03-23T03:34:26.808Z,26.80
2019-03-23T03:36:55.387Z,29.45
2019-03-23T03:39:23.956Z,26.60
2019-03-23T03:41:52.539Z,29.23
2019-03-23T03:44:21.102Z,36.25
2019-03-23T03:46:49.678Z,37.42
2019-03-23T03:49:18.233Z,32.35
2019-03-23T03:51:46.901Z,28.23
2019-03-23T03:54:15.478Z,31.33
2019-03-23T03:56:44.063Z,34.60
2019-03-23T03:59:12.618Z,37.63
2019-03-23T04:01:41.216Z,30.23
2019-03-23T04:04:09.759Z,29.60
2019-03-23T04:06:38.336Z,26.25
2019-03-23T04:09:07.267Z,25.77
2019-03-23T04:11:35.820Z,26.07
2019-03-23T04:14:04.385Z,28.98
2019-03-23T04:16:32.950Z,31.52
2019-03-23T04:19:01.525Z,30.05
2019-03-23T04:21:30.091Z,23.38
2019-03-23T04:23:58.654Z,23.73
2019-03-23T04:26:27.239Z,21.50
2019-03-23T04:28:55.799Z,23.75
2019-03-23T04:31:24.374Z,21.95
2019-03-23T04:33:52.943Z,25.12
2019-03-23T04:36:21.518Z,21.00
2019-03-23T04:38:50.081Z,20.90
2019-03-23T04:41:18.663Z,21.42
2019-03-23T04:43:47.217Z,31.07
2019-03-23T04:46:15.793Z,23.52
2019-03-23T04:48:44.358Z,25.50
2019-03-23T04:51:12.941Z,27.07
2019-03-23T04:53:41.509Z,20.75
2019-03-23T04:56:10.090Z,19.12
2019-03-23T04:58:38.641Z,20.72
2019-03-23T05:01:07.225Z,27.77
2019-03-23T05:03:35.789Z,36.65
2019-03-23T05:06:04.433Z,18.62
2019-03-23T05:08:33.818Z,23.02
2019-03-23T05:11:02.578Z,16.20
2019-03-23T05:13:31.138Z,21.55
2019-03-23T05:15:59.784Z,25.00
2019-03-23T05:18:28.337Z,28.05
2019-03-23T05:20:56.921Z,26.27
2019-03-23T05:23:25.473Z,22.80
2019-03-23T05:25:54.061Z,24.27
2019-03-23T05:28:22.617Z,27.58
2019-03-23T05:30:51.197Z,27.35
2019-03-23T05:33:19.754Z,27.13
2019-03-23T05:35:48.313Z,26.50
2019-03-23T05:38:16.889Z,29.32
2019-03-23T05:40:45.455Z,28.55
2019-03-23T05:43:14.046Z,30.70
2019-03-23T05:45:42.617Z,29.25
2019-03-23T05:48:11.202Z,24.75
2019-03-23T05:50:39.757Z,26.82
2019-03-23T05:53:08.343Z,30.57
2019-03-23T05:55:36.898Z,23.90
2019-03-23T05:58:05.473Z,23.55
2019-03-23T06:00:34.038Z,40.25
2019-03-23T06:03:02.624Z,31.48
2019-03-23T06:05:31.176Z,38.42
2019-03-23T06:07:59.757Z,29.80
2019-03-23T06:10:28.317Z,23.12
2019-03-23T06:12:56.903Z,25.15
2019-03-23T06:15:25.457Z,33.83
2019-03-23T06:17:54.045Z,28.98
2019-03-23T06:20:22.606Z,20.27
2019-03-23T06:22:51.185Z,29.27
2019-03-23T06:25:19.746Z,31.25
2019-03-23T06:27:48.327Z,30.43
2019-03-23T06:30:16.954Z,44.18
2019-03-23T06:32:45.537Z,35.08
2019-03-23T06:35:14.104Z,36.77
2019-03-23T06:37:42.686Z,33.35
2019-03-23T06:40:11.978Z,32.90
2019-03-23T06:42:40.568Z,31.40
2019-03-23T06:45:10.470Z,28.23
2019-03-23T06:47:39.119Z,40.43
2019-03-23T06:50:09.588Z,32.35
2019-03-23T06:52:38.178Z,35.40
2019-03-23T06:55:08.883Z,31.87
2019-03-23T06:57:37.481Z,31.87
2019-03-23T07:00:09.282Z,31.65
2019-03-23T07:02:37.924Z,31.27
2019-03-23T07:05:08.729Z,37.13
2019-03-23T07:07:37.317Z,21.40
2019-03-23T07:10:10.982Z,20.90
2019-03-23T07:12:39.566Z,19.10
2019-03-23T07:15:20.099Z,21.70
2019-03-23T07:17:42.663Z,20.00
2019-03-23T07:20:15.530Z,13.22
2019-03-23T07:22:44.773Z,12.58
2019-03-23T07:25:13.334Z,13.60
2019-03-23T07:27:41.979Z,14.70
2019-03-23T07:30:15.187Z,15.40
2019-03-23T07:32:43.833Z,14.07
2019-03-23T07:35:12.834Z,11.65
2019-03-23T07:37:41.410Z,10.90
2019-03-23T07:40:12.218Z,14.85
2019-03-23T07:42:40.964Z,9.40
2019-03-23T07:45:11.253Z,13.60
2019-03-23T07:47:39.838Z,10.40
2019-03-23T07:50:11.052Z,9.10
2019-03-23T07:52:39.628Z,11.57
2019-03-23T07:55:16.030Z,9.53
2019-03-23T07:57:45.155Z,9.03
2019-03-23T08:00:19.041Z,12.13
2019-03-23T08:02:47.730Z,12.95
2019-03-23T08:05:16.294Z,8.60
2019-03-23T08:07:45.001Z,13.40
2019-03-23T08:10:27.866Z,15.63
2019-03-23T08:12:57.991Z,10.68
2019-03-23T08:15:26.695Z,13.72
2019-03-23T08:17:55.726Z,16.35
2019-03-23T08:20:24.955Z,21.65
2019-03-23T08:22:54.454Z,12.05
2019-03-23T08:25:23.042Z,14.68
2019-03-23T08:27:51.606Z,10.65
2019-03-23T08:30:20.181Z,12.18
2019-03-23T08:32:48.755Z,19.67
2019-03-23T08:35:17.341Z,14.13
2019-03-23T08:37:45.913Z,14.38
2019-03-23T08:40:14.498Z,12.37
2019-03-23T08:42:44.933Z,12.82
2019-03-23T08:45:13.575Z,16.42
2019-03-23T08:47:42.157Z,12.23
2019-03-23T08:50:11.086Z,17.07
2019-03-23T08:52:39.626Z,17.27
2019-03-23T08:55:08.448Z,16.32
2019-03-23T08:57:37.015Z,15.90
2019-03-23T09:00:09.087Z,9.48
2019-03-23T09:02:37.645Z,16.30
2019-03-23T09:05:07.182Z,8.50
2019-03-23T09:07:35.737Z,14.43
2019-03-23T09:10:06.563Z,9.55
2019-03-23T09:12:35.197Z,7.15
2019-03-23T09:15:06.318Z,14.07
2019-03-23T09:17:34.881Z,11.43
2019-03-23T09:20:05.477Z,10.88
2019-03-23T09:22:34.040Z,10.40
2019-03-23T09:25:02.629Z,16.25
2019-03-23T09:27:31.196Z,14.13
2019-03-23T09:29:59.781Z,18.07
2019-03-23T09:32:28.369Z,14.78
2019-03-23T09:34:56.954Z,17.87
2019-03-23T09:37:25.539Z,15.88
2019-03-23T09:39:54.127Z,16.63
2019-03-23T09:42:22.822Z,20.32
2019-03-23T09:44:52.791Z,18.73
2019-03-23T09:47:21.344Z,14.98
2019-03-23T09:49:49.934Z,17.87
2019-03-23T09:52:18.517Z,16.55
2019-03-23T09:54:48.415Z,16.97
2019-03-23T09:57:16.970Z,16.60
2019-03-23T09:59:45.571Z,17.70
2019-03-23T10:02:14.142Z,14.40
2019-03-23T10:04:42.697Z,15.03
2019-03-23T10:07:11.294Z,16.07
2019-03-23T10:09:39.858Z,14.60
2019-03-23T10:12:08.440Z,16.87
2019-03-23T10:14:37.010Z,13.75
2019-03-23T10:17:05.628Z,17.37
2019-03-23T10:19:34.199Z,19.90
2019-03-23T10:22:02.786Z,14.70
2019-03-23T10:24:31.350Z,11.40
2019-03-23T10:26:59.938Z,12.33
2019-03-23T10:29:28.496Z,19.50
2019-03-23T10:31:57.077Z,16.90
2019-03-23T10:34:25.654Z,20.87
2019-03-23T10:36:54.525Z,18.37
2019-03-23T10:39:23.095Z,16.83
2019-03-23T10:41:51.689Z,21.80
2019-03-23T10:44:20.248Z,14.53
2019-03-23T10:46:48.841Z,21.73
2019-03-23T10:49:17.393Z,17.03
2019-03-23T10:51:45.989Z,14.30
2019-03-23T10:54:14.554Z,17.73
2019-03-23T10:56:43.137Z,10.10
2019-03-23T10:59:11.688Z,16.60
2019-03-23T11:01:40.285Z,17.63
2019-03-23T11:04:08.854Z,11.80
2019-03-23T11:06:37.454Z,18.87
2019-03-23T11:09:07.062Z,12.13
2019-03-23T11:11:35.649Z,16.27
2019-03-23T11:14:04.292Z,10.13
2019-03-23T11:16:32.876Z,14.43
2019-03-23T11:19:01.444Z,20.80
2019-03-23T11:21:30.906Z,21.17
2019-03-23T11:23:59.473Z,23.50
2019-03-23T11:26:28.233Z,17.30
2019-03-23T11:28:56.841Z,22.73
2019-03-23T11:31:25.394Z,16.30
2019-03-23T11:33:53.990Z,25.57
2019-03-23T11:36:22.549Z,19.90
2019-03-23T11:38:51.142Z,25.20
2019-03-23T11:41:19.700Z,21.50
2019-03-23T11:43:48.282Z,19.60
2019-03-23T11:46:17.098Z,19.70
2019-03-23T11:48:45.746Z,17.43
2019-03-23T11:51:14.307Z,17.93
2019-03-23T11:53:42.890Z,17.50
2019-03-23T11:56:11.471Z,19.73
2019-03-23T11:58:40.054Z,12.97
2019-03-23T12:01:08.615Z,21.33
2019-03-23T12:03:37.226Z,22.23
2019-03-23T12:06:05.790Z,17.03
2019-03-23T12:08:34.369Z,22.87
2019-03-23T12:11:03.373Z,18.67
2019-03-23T12:13:32.038Z,11.47
2019-03-23T12:16:00.601Z,23.13
2019-03-23T12:18:29.188Z,17.83
2019-03-23T12:20:57.754Z,21.63
2019-03-23T12:23:26.337Z,18.50
2019-03-23T12:25:54.893Z,16.87
2019-03-23T12:28:23.480Z,21.30
2019-03-23T12:30:52.045Z,20.43
2019-03-23T12:33:21.542Z,14.53
2019-03-23T12:35:50.258Z,18.27
2019-03-23T12:38:18.836Z,13.63
2019-03-23T12:40:47.397Z,14.87
2019-03-23T12:43:15.976Z,21.10
2019-03-23T12:45:44.540Z,17.33
2019-03-23T12:48:16.509Z,18.93
2019-03-23T12:50:45.078Z,16.10
2019-03-23T12:53:13.658Z,17.73
2019-03-23T12:55:42.218Z,18.07
2019-03-23T12:58:10.816Z,20.83
2019-03-23T13:00:39.374Z,13.63
2019-03-23T13:03:07.944Z,14.83
2019-03-23T13:05:36.533Z,19.83
2019-03-23T13:08:05.096Z,14.47
2019-03-23T13:10:33.690Z,15.70
2019-03-23T13:13:02.263Z,16.20
2019-03-23T13:15:30.854Z,21.20
2019-03-23T13:17:59.429Z,13.60
2019-03-23T13:20:28.099Z,12.77
2019-03-23T13:22:56.693Z,11.27
2019-03-23T13:25:25.289Z,12.30
2019-03-23T13:27:53.845Z,15.73
2019-03-23T13:30:22.437Z,25.93
2019-03-23T13:32:50.997Z,17.67
2019-03-23T13:35:19.581Z,18.63
2019-03-23T13:37:48.150Z,20.97
2019-03-23T13:40:16.906Z,24.90
2019-03-23T13:42:45.479Z,18.00
2019-03-23T13:45:14.193Z,17.97
2019-03-23T13:47:42.770Z,19.67
2019-03-23T13:50:11.994Z,19.10
2019-03-23T13:52:40.562Z,21.33
2019-03-23T13:55:13.102Z,15.47
2019-03-23T13:57:41.693Z,19.20
2019-03-23T14:00:10.448Z,16.80
2019-03-23T14:02:39.018Z,17.27
2019-03-23T14:05:15.729Z,17.67
2019-03-23T14:07:37.962Z,20.20
2019-03-23T14:10:09.406Z,18.10
2019-03-23T14:12:37.965Z,16.30
2019-03-23T14:15:07.294Z,21.70
2019-03-23T14:17:35.866Z,18.60
2019-03-23T14:20:07.098Z,17.93
2019-03-23T14:22:35.674Z,20.33
2019-03-23T14:25:06.608Z,17.27
2019-03-23T14:27:35.160Z,22.07
2019-03-23T14:30:06.155Z,19.00
2019-03-23T14:32:34.717Z,19.80
2019-03-23T14:35:03.764Z,21.50
2019-03-23T14:37:32.333Z,17.23
2019-03-23T14:40:00.921Z,28.13
2019-03-23T14:42:29.492Z,28.77
2019-03-23T14:44:58.094Z,27.13
2019-03-23T14:47:26.661Z,31.17
2019-03-23T14:49:55.221Z,35.50
2019-03-23T14:52:23.818Z,26.53
2019-03-23T14:54:52.388Z,35.63
2019-03-23T14:57:20.973Z,31.93
2019-03-23T14:59:49.533Z,31.20
2019-03-23T15:02:18.122Z,30.77
2019-03-23T15:04:46.690Z,34.10
2019-03-23T15:07:15.278Z,31.83
2019-03-23T15:09:43.842Z,31.27
2019-03-23T15:12:15.236Z,32.13
2019-03-23T15:14:42.645Z,35.37
2019-03-23T15:17:11.233Z,33.43
2019-03-23T15:19:39.797Z,31.00
2019-03-23T15:22:08.391Z,32.70
2019-03-23T15:24:36.958Z,33.13
2019-03-23T15:27:05.559Z,31.93
2019-03-23T15:29:34.126Z,41.17
2019-03-23T15:32:02.709Z,31.37
2019-03-23T15:34:31.291Z,35.00
2019-03-23T15:36:59.870Z,38.43
2019-03-23T15:39:28.435Z,34.33
2019-03-23T15:41:57.025Z,52.60
2019-03-23T15:44:25.586Z,58.73
2019-03-23T15:46:54.174Z,51.60
2019-03-23T15:49:22.743Z,66.00
2019-03-23T15:51:51.342Z,66.73
2019-03-23T15:54:19.892Z,71.63
2019-03-23T15:56:48.483Z,84.83
2019-03-23T15:59:17.046Z,73.70
2019-03-23T16:01:45.694Z,81.67
2019-03-23T16:04:14.270Z,85.20
2019-03-23T16:06:42.858Z,92.57
2019-03-23T16:09:11.424Z,83.60
2019-03-23T16:11:40.084Z,89.33
2019-03-23T16:14:08.649Z,111.10
2019-03-23T16:16:37.239Z,127.00
2019-03-23T16:19:05.801Z,119.87
2019-03-23T16:21:34.397Z,153.50
2019-03-23T16:24:02.965Z,140.23
2019-03-23T16:26:31.578Z,131.60
2019-03-23T16:29:00.139Z,122.23
2019-03-23T16:31:28.741Z,135.10
2019-03-23T16:33:57.313Z,131.93
2019-03-23T16:36:25.881Z,126.07
2019-03-23T16:38:54.485Z,131.40
2019-03-23T16:41:23.053Z,136.05
2019-03-23T16:43:51.654Z,132.18
2019-03-23T16:46:20.225Z,134.12
2019-03-23T16:48:48.827Z,134.63
2019-03-23T16:51:17.394Z,128.97
2019-03-23T16:53:45.984Z,120.87
2019-03-23T16:56:14.557Z,131.20
2019-03-23T16:58:43.188Z,129.42
2019-03-23T17:01:11.717Z,128.07
2019-03-23T17:03:40.304Z,125.90
2019-03-23T17:06:08.873Z,119.93
2019-03-23T17:08:37.463Z,120.85
2019-03-23T17:11:06.029Z,130.70
2019-03-23T17:13:34.622Z,120.13
2019-03-23T17:16:03.258Z,125.72
2019-03-23T17:18:31.848Z,137.80
2019-03-23T17:21:00.414Z,131.25
2019-03-23T17:23:29.007Z,131.15
2019-03-23T17:25:57.578Z,138.45
2019-03-23T17:28:26.167Z,141.35
2019-03-23T17:30:54.736Z,121.72
2019-03-23T17:33:23.365Z,130.50
2019-03-23T17:35:51.884Z,133.87
2019-03-23T17:38:20.475Z,111.05
2019-03-23T17:40:49.040Z,128.82
2019-03-23T17:43:17.630Z,138.37
2019-03-23T17:45:46.194Z,134.75
2019-03-23T17:48:14.786Z,146.07
2019-03-23T17:50:43.349Z,120.35
2019-03-23T17:53:11.937Z,107.45
2019-03-23T17:55:40.502Z,129.35
2019-03-23T17:58:09.089Z,140.65
2019-03-23T18:00:37.654Z,140.80
2019-03-23T18:03:06.237Z,134.60
2019-03-23T18:05:34.806Z,135.00
2019-03-23T18:08:03.441Z,145.22
2019-03-23T18:10:32.036Z,155.35
2019-03-23T18:13:00.607Z,133.00
2019-03-23T18:15:29.194Z,136.52
2019-03-23T18:17:57.757Z,147.98
2019-03-23T18:20:26.337Z,140.43
2019-03-23T18:22:54.896Z,137.72
2019-03-23T18:25:23.482Z,133.80
2019-03-23T18:27:52.052Z,135.12
2019-03-23T18:30:38.058Z,151.35
2019-03-23T18:33:07.260Z,139.12
2019-03-23T18:35:35.913Z,139.88
2019-03-23T18:38:04.709Z,134.03
2019-03-23T18:40:33.935Z,127.97
2019-03-23T18:43:02.570Z,129.05
2019-03-23T18:45:31.156Z,138.70
2019-03-23T18:47:59.723Z,149.38
2019-03-23T18:50:28.297Z,142.62
2019-03-23T18:52:56.867Z,136.18
2019-03-23T18:55:25.457Z,137.62
2019-03-23T18:57:54.013Z,137.30
2019-03-23T19:00:39.204Z,132.12
2019-03-23T19:03:07.878Z,145.32
2019-03-23T19:05:36.722Z,136.45
2019-03-23T19:08:05.826Z,128.78
2019-03-23T19:10:35.259Z,136.18
2019-03-23T19:13:03.957Z,134.45
2019-03-23T19:15:32.683Z,140.97
2019-03-23T19:18:01.256Z,139.88
2019-03-23T19:20:29.901Z,123.60
2019-03-23T19:22:58.463Z,128.78
2019-03-23T19:25:27.042Z,129.93
2019-03-23T19:27:55.607Z,116.50
2019-03-23T19:30:24.360Z,126.82
2019-03-23T19:32:52.923Z,122.75
2019-03-23T19:35:21.506Z,126.30
2019-03-23T19:37:50.065Z,132.35
2019-03-23T19:40:18.644Z,132.80
2019-03-23T19:42:47.213Z,127.58
2019-03-23T19:45:15.801Z,137.65
2019-03-23T19:47:44.362Z,138.72
2019-03-23T19:50:13.387Z,126.35
2019-03-23T19:52:41.941Z,152.38
2019-03-23T19:55:11.271Z,139.60
2019-03-23T19:57:39.829Z,149.90
2019-03-23T20:00:11.122Z,147.65
2019-03-23T20:02:39.685Z,136.05
2019-03-23T20:05:08.270Z,136.18
2019-03-23T20:07:36.830Z,135.30
2019-03-23T20:10:07.757Z,145.47
2019-03-23T20:12:36.322Z,140.68
2019-03-23T20:15:09.286Z,124.72
2019-03-23T20:17:37.846Z,135.45
2019-03-23T20:20:10.381Z,134.25
2019-03-23T20:22:39.015Z,155.57
2019-03-23T20:25:08.235Z,146.00
2019-03-23T20:27:36.878Z,135.00
2019-03-23T20:30:11.246Z,142.72
2019-03-23T20:32:39.806Z,141.03
2019-03-23T20:35:09.628Z,147.47
2019-03-23T20:37:38.191Z,144.97
2019-03-23T20:40:08.014Z,151.35
2019-03-23T20:42:36.577Z,141.28
2019-03-23T20:45:07.750Z,134.40
2019-03-23T20:47:37.098Z,149.53
2019-03-23T20:50:08.298Z,144.62
2019-03-23T20:52:37.021Z,149.57
2019-03-23T20:55:08.288Z,142.60
2019-03-23T20:57:37.754Z,129.90
2019-03-23T21:00:07.878Z,132.00
2019-03-23T21:02:36.467Z,146.18
2019-03-23T21:05:06.297Z,126.70
2019-03-23T21:07:34.883Z,125.12
2019-03-23T21:10:03.998Z,135.30
2019-03-23T21:12:32.569Z,120.17
2019-03-23T21:15:01.134Z,123.92
2019-03-23T21:17:29.717Z,128.47
2019-03-23T21:19:58.273Z,136.25
2019-03-23T21:22:26.861Z,128.53
2019-03-23T21:24:55.422Z,130.15
2019-03-23T21:27:24.009Z,129.35
2019-03-23T21:29:52.569Z,134.63
2019-03-23T21:32:21.154Z,127.40
2019-03-23T21:34:49.718Z,115.17
2019-03-23T21:37:18.304Z,120.67
2019-03-23T21:39:46.856Z,125.00
2019-03-23T21:42:15.441Z,128.82
2019-03-23T21:44:44.001Z,115.20
2019-03-23T21:47:12.586Z,133.50
2019-03-23T21:49:41.144Z,153.15
2019-03-23T21:52:09.725Z,150.62
2019-03-23T21:54:38.291Z,154.30
2019-03-23T21:57:06.873Z,156.72
2019-03-23T21:59:35.431Z,182.10
2019-03-23T22:02:04.015Z,168.55
2019-03-23T22:04:32.641Z,162.80
2019-03-23T22:07:01.227Z,170.02
2019-03-23T22:09:29.795Z,182.37
2019-03-23T22:11:58.374Z,191.47
2019-03-23T22:14:26.932Z,163.70
2019-03-23T22:16:55.514Z,151.87
2019-03-23T22:19:24.069Z,160.88
2019-03-23T22:21:52.645Z,157.57
2019-03-23T22:24:21.210Z,158.72
2019-03-23T22:26:49.794Z,157.15
2019-03-23T22:29:18.353Z,167.37
2019-03-23T22:31:46.912Z,171.28
2019-03-23T22:34:15.490Z,144.17
2019-03-23T22:36:44.049Z,152.25
2019-03-23T22:39:12.638Z,153.60
2019-03-23T22:41:41.202Z,155.18
2019-03-23T22:44:09.786Z,162.03
2019-03-23T22:46:38.352Z,147.65
2019-03-23T22:49:06.942Z,152.72
2019-03-23T22:51:35.507Z,158.42
2019-03-23T22:54:04.161Z,158.03
2019-03-23T22:56:32.720Z,171.32
2019-03-23T22:59:01.306Z,166.12
2019-03-23T23:01:29.864Z,149.85
2019-03-23T23:03:58.446Z,152.00
2019-03-23T23:06:27.000Z,164.07
2019-03-23T23:08:55.589Z,182.55
2019-03-23T23:11:24.148Z,141.65
2019-03-23T23:13:52.738Z,154.45
2019-03-23T23:16:21.301Z,141.22
2019-03-23T23:18:49.882Z,150.97
2019-03-23T23:21:18.440Z,151.25
2019-03-23T23:23:47.030Z,142.43
2019-03-23T23:26:15.589Z,113.52
2019-03-23T23:28:44.179Z,140.57
2019-03-23T23:31:12.737Z,145.65
2019-03-23T23:33:41.321Z,153.50
2019-03-23T23:36:09.880Z,146.02
2019-03-23T23:38:38.509Z,156.02
2019-03-23T23:41:07.021Z,144.60
2019-03-23T23:43:35.606Z,149.87
2019-03-23T23:46:04.170Z,147.68
2019-03-23T23:48:32.749Z,149.18
2019-03-23T23:51:01.310Z,153.90
2019-03-23T23:53:29.884Z,118.65
2019-03-23T23:55:58.445Z,150.60
2019-03-23T23:58:27.038Z,148.10
